createdAt,value
2022-11-10T00:01:17.872Z,10.12
2022-11-10T00:04:05.907Z,10.06
2022-11-10T00:06:53.239Z,10.00
2022-11-10T00:09:40.760Z,10.06
2022-11-10T00:12:30.606Z,10.08
2022-11-10T00:15:35.521Z,10.06
2022-11-10T00:18:22.732Z,10.05
2022-11-10T00:21:12.677Z,10.14
2022-11-10T00:23:59.898Z,10.07
2022-11-10T00:26:47.225Z,10.07
2022-11-10T00:29:36.203Z,10.11
2022-11-10T00:32:23.459Z,10.11
2022-11-10T00:35:11.897Z,10.21
2022-11-10T00:37:59.046Z,9.94
2022-11-10T00:40:46.051Z,10.26
2022-11-10T00:43:33.728Z,10.24
2022-11-10T00:46:23.319Z,10.21
2022-11-10T00:49:11.412Z,10.20
2022-11-10T00:51:58.977Z,10.07
2022-11-10T00:54:46.195Z,10.08
2022-11-10T00:57:33.592Z,9.79
2022-11-10T01:00:21.075Z,10.01
2022-11-10T01:03:14.732Z,10.18
2022-11-10T01:06:06.934Z,9.86
2022-11-10T01:08:54.118Z,10.06
2022-11-10T01:11:41.210Z,10.10
2022-11-10T01:14:28.440Z,9.95
2022-11-10T01:17:17.057Z,10.10
2022-11-10T01:20:08.611Z,10.28
2022-11-10T01:22:57.282Z,10.22
2022-11-10T01:25:45.284Z,9.95
2022-11-10T01:28:33.607Z,10.10
2022-11-10T01:31:22.310Z,9.91
2022-11-10T01:34:09.840Z,10.14
2022-11-10T01:36:59.325Z,10.14
2022-11-10T01:39:46.460Z,9.87
2022-11-10T01:42:47.441Z,9.97
2022-11-10T01:45:47.317Z,10.22
2022-11-10T01:48:38.880Z,9.80
2022-11-10T01:51:29.644Z,9.84
2022-11-10T01:54:22.832Z,10.07
2022-11-10T01:57:14.009Z,9.97
2022-11-10T02:00:02.996Z,10.02
2022-11-10T02:02:53.835Z,10.10
2022-11-10T02:05:45.668Z,10.04
2022-11-10T02:08:33.527Z,9.90
2022-11-10T02:11:22.955Z,9.86
2022-11-10T02:14:13.340Z,9.89
2022-11-10T02:17:01.160Z,9.83
2022-11-10T02:19:48.758Z,9.95
2022-11-10T02:22:38.464Z,9.86
2022-11-10T02:25:30.997Z,9.84
2022-11-10T02:28:18.898Z,9.68
2022-11-10T02:31:07.794Z,9.68
2022-11-10T02:33:55.906Z,9.71
2022-11-10T02:36:43.681Z,9.82
2022-11-10T02:39:32.305Z,9.87
2022-11-10T02:42:19.915Z,9.82
2022-11-10T02:45:08.809Z,9.74
2022-11-10T02:47:56.917Z,9.76
2022-11-10T02:50:44.674Z,9.76
2022-11-10T02:53:31.758Z,9.71
2022-11-10T02:56:21.290Z,9.70
2022-11-10T02:59:08.908Z,9.69
2022-11-10T03:01:57.057Z,9.74
2022-11-10T03:04:44.605Z,9.77
2022-11-10T03:07:32.269Z,9.66
2022-11-10T03:10:20.081Z,9.62
2022-11-10T03:13:09.262Z,9.71
2022-11-10T03:15:56.433Z,9.43
2022-11-10T03:18:46.048Z,9.65
2022-11-10T03:21:33.247Z,9.83
2022-11-10T03:24:20.284Z,9.57
2022-11-10T03:27:08.114Z,9.57
2022-11-10T03:29:57.187Z,9.61
2022-11-10T03:32:44.804Z,9.63
2022-11-10T03:35:32.577Z,9.72
2022-11-10T03:38:22.847Z,9.67
2022-11-10T03:41:20.238Z,9.70
2022-11-10T03:44:09.245Z,9.44
2022-11-10T03:46:58.235Z,9.58
2022-11-10T03:49:45.706Z,9.69
2022-11-10T03:52:33.177Z,9.58
2022-11-10T03:55:21.194Z,9.66
2022-11-10T03:58:08.905Z,9.65
2022-11-10T04:00:56.475Z,9.63
2022-11-10T04:03:51.128Z,9.65
2022-11-10T04:06:56.458Z,9.55
2022-11-10T04:09:43.840Z,8.41
2022-11-10T04:12:48.305Z,9.54
2022-11-10T04:15:44.675Z,9.49
2022-11-10T04:18:32.184Z,9.41
2022-11-10T04:21:21.280Z,9.46
2022-11-10T04:24:08.906Z,9.73
2022-11-10T04:26:56.950Z,9.58
2022-11-10T04:29:44.524Z,9.55
2022-11-10T04:32:32.521Z,9.56
2022-11-10T04:35:19.851Z,9.74
2022-11-10T04:38:09.156Z,9.56
2022-11-10T04:40:56.925Z,9.56
2022-11-10T04:43:44.621Z,9.46
2022-11-10T04:46:35.621Z,9.62
2022-11-10T04:49:22.895Z,9.61
2022-11-10T04:52:10.890Z,9.43
2022-11-10T04:55:00.261Z,8.37
2022-11-10T04:57:47.588Z,9.32
2022-11-10T05:00:35.782Z,9.50
2022-11-10T05:03:23.279Z,9.49
2022-11-10T05:06:11.127Z,9.25
2022-11-10T05:09:01.071Z,9.27
2022-11-10T05:11:53.238Z,9.52
2022-11-10T05:14:41.400Z,9.48
2022-11-10T05:17:28.886Z,9.24
2022-11-10T05:20:16.509Z,9.44
2022-11-10T05:23:21.787Z,9.57
2022-11-10T05:26:11.717Z,9.38
2022-11-10T05:29:00.393Z,9.35
2022-11-10T05:31:51.403Z,9.37
2022-11-10T05:34:38.883Z,9.55
2022-11-10T05:37:26.743Z,9.54
2022-11-10T05:40:14.464Z,9.44
2022-11-10T05:43:02.096Z,9.60
2022-11-10T05:45:53.299Z,9.54
2022-11-10T05:48:40.301Z,9.44
2022-11-10T05:51:27.624Z,9.41
2022-11-10T05:54:14.798Z,9.69
2022-11-10T05:57:02.948Z,9.63
2022-11-10T05:59:52.787Z,9.44
2022-11-10T06:02:41.683Z,9.48
2022-11-10T06:05:31.500Z,9.42
2022-11-10T06:08:21.004Z,9.50
2022-11-10T06:11:09.020Z,9.40
2022-11-10T06:13:56.348Z,9.37
2022-11-10T06:16:43.444Z,9.17
2022-11-10T06:47:16.822Z,9.33
2022-11-10T06:50:04.202Z,9.35
2022-11-10T06:52:55.402Z,9.14
2022-11-10T06:55:42.495Z,9.29
2022-11-10T06:58:29.865Z,9.34
2022-11-10T07:01:22.164Z,9.63
2022-11-10T07:04:19.676Z,9.41
2022-11-10T07:07:07.817Z,9.27
2022-11-10T07:09:55.270Z,9.40
2022-11-10T07:12:42.822Z,9.52
2022-11-10T07:15:30.361Z,9.51
2022-11-10T07:18:17.910Z,9.54
2022-11-10T07:21:07.216Z,9.57
2022-11-10T07:23:55.430Z,9.52
2022-11-10T07:26:42.790Z,9.66
2022-11-10T07:29:30.730Z,9.79
2022-11-10T07:32:17.802Z,9.58
2022-11-10T07:35:05.784Z,9.63
2022-11-10T07:37:54.913Z,9.62
2022-11-10T07:40:42.325Z,9.83
2022-11-10T07:43:31.773Z,9.90
2022-11-10T07:46:19.238Z,9.75
2022-11-10T07:49:06.901Z,9.54
2022-11-10T07:51:54.207Z,9.73
2022-11-10T07:54:42.938Z,9.89
2022-11-10T07:57:30.123Z,9.81
2022-11-10T08:00:19.227Z,9.98
2022-11-10T08:03:08.114Z,9.59
2022-11-10T08:05:55.317Z,9.86
2022-11-10T08:08:42.784Z,9.27
2022-11-10T08:11:31.867Z,10.01
2022-11-10T08:14:19.522Z,10.16
2022-11-10T08:17:06.896Z,10.06
2022-11-10T08:19:54.366Z,10.14
2022-11-10T08:22:45.380Z,10.27
2022-11-10T08:25:35.765Z,10.52
2022-11-10T08:28:26.330Z,10.38
2022-11-10T08:31:13.585Z,10.28
2022-11-10T08:34:01.221Z,10.38
2022-11-10T08:36:48.388Z,10.27
2022-11-10T08:39:39.674Z,10.28
2022-11-10T08:42:27.949Z,10.27
2022-11-10T08:45:17.300Z,10.34
2022-11-10T08:48:09.202Z,10.32
2022-11-10T08:50:56.350Z,9.46
2022-11-10T08:53:46.442Z,10.67
2022-11-10T08:56:33.504Z,10.67
2022-11-10T08:59:21.115Z,10.72
2022-11-10T09:02:11.552Z,10.89
2022-11-10T09:04:58.802Z,10.94
2022-11-10T09:07:47.332Z,11.09
2022-11-10T09:10:40.142Z,11.17
2022-11-10T09:13:30.340Z,11.12
2022-11-10T09:16:18.478Z,11.25
2022-11-10T09:19:07.550Z,11.21
2022-11-10T09:21:55.017Z,11.35
2022-11-10T09:24:42.149Z,11.51
2022-11-10T09:27:29.576Z,11.61
2022-11-10T09:30:18.205Z,11.74
2022-11-10T09:33:05.637Z,11.81
2022-11-10T09:35:58.760Z,11.86
2022-11-10T09:38:46.739Z,12.04
2022-11-10T09:41:34.281Z,12.03
2022-11-10T09:44:26.431Z,12.19
2022-11-10T09:47:50.782Z,12.22
2022-11-10T09:50:37.977Z,12.24
2022-11-10T09:53:33.576Z,12.09
2022-11-10T09:56:24.131Z,12.46
2022-11-10T09:59:20.302Z,12.44
2022-11-10T10:02:20.831Z,12.38
2022-11-10T10:05:36.347Z,12.49
2022-11-10T10:08:45.431Z,12.49
2022-11-10T10:11:47.639Z,12.74
2022-11-10T10:14:53.544Z,12.83
2022-11-10T10:17:50.335Z,12.82
2022-11-10T10:20:51.385Z,12.77
2022-11-10T10:27:01.141Z,12.94
2022-11-10T10:29:50.349Z,13.05
2022-11-10T10:32:37.578Z,13.07
2022-11-10T10:35:24.990Z,12.94
2022-11-10T10:38:24.380Z,12.97
2022-11-10T10:41:21.072Z,13.10
2022-11-10T10:44:14.403Z,13.15
2022-11-10T10:47:03.025Z,12.90
2022-11-10T10:49:53.328Z,12.94
2022-11-10T10:52:41.215Z,13.00
2022-11-10T10:55:31.458Z,13.14
2022-11-10T10:58:29.371Z,12.68
2022-11-10T11:01:25.661Z,13.09
2022-11-10T11:04:30.132Z,12.85
2022-11-10T11:07:22.747Z,13.06
2022-11-10T11:10:22.813Z,12.92
2022-11-10T11:13:17.211Z,12.90
2022-11-10T11:16:09.495Z,12.93
2022-11-10T11:18:58.300Z,12.83
2022-11-10T11:22:07.844Z,12.93
2022-11-10T11:25:05.656Z,13.00
2022-11-10T11:28:07.451Z,12.93
2022-11-10T11:31:09.755Z,13.03
2022-11-10T11:34:06.729Z,12.98
2022-11-10T11:37:09.805Z,13.01
2022-11-10T11:40:08.255Z,13.22
2022-11-10T11:43:10.262Z,13.19
2022-11-10T11:46:05.308Z,13.24
2022-11-10T11:49:02.167Z,13.32
2022-11-10T11:51:57.175Z,13.35
2022-11-10T11:55:00.926Z,13.46
2022-11-10T11:58:05.557Z,13.43
2022-11-10T12:01:06.051Z,13.30
2022-11-10T12:04:23.937Z,13.40
2022-11-10T12:07:28.917Z,13.40
2022-11-10T12:10:32.287Z,13.33
2022-11-10T12:13:27.196Z,13.32
2022-11-10T12:16:22.464Z,13.42
2022-11-10T12:19:29.090Z,13.39
2022-11-10T12:22:33.621Z,13.40
2022-11-10T12:25:29.253Z,13.26
2022-11-10T12:28:22.508Z,13.09
2022-11-10T12:31:16.535Z,13.20
2022-11-10T12:34:10.994Z,13.15
2022-11-10T12:37:02.814Z,13.24
2022-11-10T12:39:59.392Z,13.11
2022-11-10T12:42:53.681Z,13.18
2022-11-10T12:45:46.687Z,13.25
2022-11-10T12:48:41.536Z,13.01
2022-11-10T12:51:34.139Z,12.97
2022-11-10T12:54:28.943Z,13.09
2022-11-10T12:57:21.041Z,12.85
2022-11-10T13:00:27.992Z,13.26
2022-11-10T13:03:26.352Z,12.73
2022-11-10T13:06:52.487Z,13.08
2022-11-10T13:09:44.862Z,13.28
2022-11-10T13:12:33.152Z,13.00
2022-11-10T13:15:46.683Z,13.21
2022-11-10T13:19:01.663Z,13.19
2022-11-10T13:22:07.130Z,13.34
2022-11-10T13:25:34.190Z,13.22
2022-11-10T13:29:07.557Z,13.26
2022-11-10T13:31:57.020Z,13.30
2022-11-10T13:34:47.688Z,13.30
2022-11-10T13:37:50.477Z,13.05
2022-11-10T13:40:41.069Z,13.33
2022-11-10T13:43:31.261Z,13.41
2022-11-10T13:46:19.744Z,13.31
2022-11-10T13:49:24.476Z,13.49
2022-11-10T13:52:17.289Z,13.15
2022-11-10T13:55:20.124Z,13.29
2022-11-10T13:58:13.270Z,12.22
2022-11-10T14:01:26.171Z,13.11
2022-11-10T14:04:38.751Z,13.13
2022-11-10T14:07:30.126Z,12.75
2022-11-10T14:10:19.744Z,13.31
2022-11-10T14:13:18.180Z,13.56
2022-11-10T14:16:15.281Z,13.35
2022-11-10T14:19:19.589Z,13.32
2022-11-10T14:22:12.282Z,13.44
2022-11-10T14:25:06.076Z,13.02
2022-11-10T14:27:57.961Z,13.04
2022-11-10T14:30:54.509Z,13.08
2022-11-10T14:33:41.722Z,13.08
2022-11-10T14:36:28.907Z,13.23
2022-11-10T14:39:18.027Z,13.21
2022-11-10T14:42:06.917Z,13.10
2022-11-10T14:45:15.627Z,13.05
2022-11-10T14:48:04.383Z,13.20
2022-11-10T14:50:53.434Z,12.97
2022-11-10T14:53:49.344Z,12.95
2022-11-10T14:56:39.679Z,12.96
2022-11-10T14:59:27.313Z,13.13
2022-11-10T15:02:17.987Z,13.04
2022-11-10T15:05:07.184Z,13.12
2022-11-10T15:07:56.818Z,13.11
2022-11-10T15:10:48.017Z,12.99
2022-11-10T15:13:38.818Z,12.90
2022-11-10T15:16:28.187Z,12.91
2022-11-10T15:19:24.013Z,12.86
2022-11-10T15:22:18.854Z,12.77
2022-11-10T15:25:14.598Z,12.70
2022-11-10T15:28:04.324Z,12.68
2022-11-10T15:30:57.588Z,12.76
2022-11-10T15:33:48.548Z,12.70
2022-11-10T15:36:39.665Z,12.80
2022-11-10T15:39:30.230Z,12.95
2022-11-10T15:42:22.414Z,12.74
2022-11-10T15:45:10.022Z,12.86
2022-11-10T15:47:57.634Z,12.75
2022-11-10T15:50:47.428Z,12.82
2022-11-10T15:53:38.507Z,12.65
2022-11-10T15:56:27.655Z,12.86
2022-11-10T15:59:15.377Z,11.78
2022-11-10T16:02:02.440Z,12.79
2022-11-10T16:04:56.989Z,12.48
2022-11-10T16:07:46.280Z,12.67
2022-11-10T16:10:33.451Z,12.69
2022-11-10T16:13:27.509Z,12.62
2022-11-10T16:16:17.408Z,12.68
2022-11-10T16:19:04.855Z,12.76
2022-11-10T16:21:52.055Z,12.69
2022-11-10T16:24:40.075Z,12.32
2022-11-10T16:27:27.332Z,12.60
2022-11-10T16:30:17.118Z,12.63
2022-11-10T16:33:33.631Z,11.66
2022-11-10T16:36:26.387Z,12.42
2022-11-10T16:39:16.367Z,12.31
2022-11-10T16:42:04.538Z,12.56
2022-11-10T16:44:52.713Z,12.42
2022-11-10T16:47:42.399Z,12.52
2022-11-10T16:50:33.308Z,12.44
2022-11-10T16:53:24.535Z,12.52
2022-11-10T16:56:15.961Z,12.56
2022-11-10T16:59:04.422Z,12.71
2022-11-10T17:01:55.787Z,12.45
2022-11-10T17:04:45.322Z,12.35
2022-11-10T17:07:35.429Z,12.35
2022-11-10T17:10:24.048Z,12.37
2022-11-10T17:13:12.690Z,12.46
2022-11-10T17:16:05.120Z,12.33
2022-11-10T17:18:52.583Z,12.52
2022-11-10T17:21:41.337Z,12.50
2022-11-10T17:24:28.862Z,12.53
2022-11-10T17:27:16.975Z,12.49
2022-11-10T17:30:04.733Z,12.33
2022-11-10T17:33:09.549Z,12.33
2022-11-10T17:35:58.749Z,12.38
2022-11-10T17:38:47.282Z,12.30
2022-11-10T17:41:35.420Z,12.19
2022-11-10T17:44:23.271Z,12.31
2022-11-10T17:47:11.169Z,12.07
2022-11-10T17:49:59.222Z,12.26
2022-11-10T17:52:46.840Z,12.13
2022-11-10T17:55:36.979Z,11.93
2022-11-10T17:58:24.725Z,12.02
2022-11-10T18:01:17.539Z,11.96
2022-11-10T18:04:05.299Z,12.24
2022-11-10T18:06:52.610Z,12.14
2022-11-10T18:09:40.385Z,11.81
2022-11-10T18:12:29.557Z,11.87
2022-11-10T18:15:18.436Z,11.77
2022-11-10T18:18:06.339Z,11.58
2022-11-10T18:20:53.472Z,11.66
2022-11-10T18:23:44.247Z,11.51
2022-11-10T18:26:31.751Z,11.29
2022-11-10T18:29:25.564Z,11.23
2022-11-10T18:32:26.022Z,11.29
2022-11-10T18:35:19.225Z,11.23
2022-11-10T18:38:10.199Z,11.34
2022-11-10T18:41:22.536Z,11.37
2022-11-10T18:44:10.033Z,11.45
2022-11-10T18:46:59.694Z,11.25
2022-11-10T18:49:46.931Z,11.37
2022-11-10T18:52:34.357Z,11.30
2022-11-10T18:55:22.305Z,11.06
2022-11-10T18:58:10.182Z,11.37
2022-11-10T19:01:04.130Z,11.24
2022-11-10T19:03:53.543Z,11.07
2022-11-10T19:06:41.392Z,11.15
2022-11-10T19:09:28.819Z,11.00
2022-11-10T19:12:16.879Z,10.16
2022-11-10T19:15:03.921Z,11.30
2022-11-10T19:17:51.308Z,11.10
2022-11-10T19:20:41.293Z,11.14
2022-11-10T19:23:28.535Z,11.22
2022-11-10T19:26:22.207Z,11.18
2022-11-10T19:29:15.259Z,11.20
2022-11-10T19:32:03.904Z,11.07
2022-11-10T19:34:50.916Z,11.45
2022-11-10T19:37:42.034Z,11.43
2022-11-10T19:40:29.915Z,11.58
2022-11-10T19:43:18.267Z,11.43
2022-11-10T19:46:08.260Z,11.15
2022-11-10T19:48:56.038Z,11.27
2022-11-10T19:51:43.850Z,11.33
2022-11-10T19:54:32.752Z,11.19
2022-11-10T19:57:20.247Z,11.26
2022-11-10T20:00:11.980Z,11.38
2022-11-10T20:03:00.258Z,11.43
2022-11-10T20:05:47.880Z,11.38
2022-11-10T20:08:39.652Z,11.28
2022-11-10T20:11:28.407Z,11.21
2022-11-10T20:14:16.409Z,11.59
2022-11-10T20:17:04.320Z,11.38
2022-11-10T20:19:51.667Z,11.48
2022-11-10T20:22:39.311Z,11.48
2022-11-10T20:25:27.274Z,11.31
2022-11-10T20:28:16.133Z,11.28
2022-11-10T20:31:07.129Z,11.28
2022-11-10T20:33:56.576Z,11.28
2022-11-10T20:36:44.146Z,11.38
2022-11-10T20:39:31.538Z,11.39
2022-11-10T20:42:19.263Z,11.29
2022-11-10T20:45:09.373Z,11.48
2022-11-10T20:47:57.649Z,11.31
2022-11-10T20:50:45.253Z,11.45
2022-11-10T20:58:09.992Z,11.24
2022-11-10T21:01:02.792Z,11.32
2022-11-10T21:03:50.295Z,11.30
2022-11-10T21:06:38.866Z,11.23
2022-11-10T21:09:27.179Z,11.20
2022-11-10T21:12:32.460Z,11.32
2022-11-10T21:15:21.368Z,11.35
2022-11-10T21:18:10.542Z,11.50
2022-11-10T21:20:58.466Z,11.25
2022-11-10T21:23:47.618Z,11.34
2022-11-10T21:27:05.164Z,11.28
2022-11-10T21:29:53.305Z,11.16
2022-11-10T21:32:41.061Z,11.16
2022-11-10T21:35:35.336Z,11.13
2022-11-10T21:38:25.352Z,11.21
2022-11-10T21:45:04.283Z,11.15
2022-11-10T21:48:00.726Z,11.30
2022-11-10T21:50:49.546Z,11.08
2022-11-10T21:58:07.746Z,10.94
2022-11-10T22:01:25.010Z,10.98
2022-11-10T22:04:49.174Z,11.10
2022-11-10T22:08:09.771Z,11.21
2022-11-10T22:11:43.001Z,11.08
2022-11-10T22:15:30.662Z,11.01
2022-11-10T22:18:38.274Z,10.91
2022-11-10T22:22:15.677Z,11.16
2022-11-10T22:25:40.960Z,11.08
2022-11-10T22:28:34.428Z,11.05
2022-11-10T22:31:22.176Z,10.86
2022-11-10T22:34:10.441Z,10.89
2022-11-10T22:36:59.758Z,10.83
2022-11-10T22:40:04.935Z,11.05
2022-11-10T22:43:11.230Z,11.16
2022-11-10T22:45:59.444Z,11.01
2022-11-10T22:48:47.503Z,10.88
2022-11-10T22:51:36.837Z,11.08
2022-11-10T22:54:25.198Z,11.13
2022-11-10T22:57:13.308Z,11.20
2022-11-10T23:00:02.994Z,10.99
2022-11-10T23:02:53.714Z,11.01
2022-11-10T23:05:41.811Z,10.96
2022-11-10T23:08:29.402Z,10.44
2022-11-10T23:11:20.507Z,10.92
2022-11-10T23:14:07.915Z,10.77
2022-11-10T23:16:59.653Z,10.80
2022-11-10T23:19:47.088Z,10.82
2022-11-10T23:22:34.399Z,11.06
2022-11-10T23:25:22.316Z,11.13
2022-11-10T23:28:09.833Z,10.83
2022-11-10T23:31:04.642Z,10.94
2022-11-10T23:33:55.260Z,11.02
2022-11-10T23:36:43.176Z,10.70
2022-11-10T23:39:30.423Z,10.83
2022-11-10T23:42:18.268Z,10.94
2022-11-10T23:45:08.452Z,10.87
2022-11-10T23:47:55.623Z,10.93
2022-11-10T23:50:44.114Z,10.91
2022-11-10T23:53:32.122Z,10.73
2022-11-10T23:56:20.412Z,10.74
2022-11-10T23:59:08.360Z,10.62
